createdAt,value
2018-02-07T00:02:13.701Z,71.35
2018-02-07T00:04:42.023Z,71.56
2018-02-07T00:07:10.293Z,71.70
2018-02-07T00:09:38.602Z,72.05
2018-02-07T00:12:06.896Z,72.04
2018-02-07T00:14:35.196Z,71.54
2018-02-07T00:17:03.490Z,72.05
2018-02-07T00:19:31.845Z,72.70
2018-02-07T00:22:00.113Z,73.26
2018-02-07T00:24:28.428Z,73.68
2018-02-07T00:26:56.715Z,73.71
2018-02-07T00:29:25.008Z,73.88
2018-02-07T00:31:53.309Z,74.22
2018-02-07T00:34:21.590Z,74.65
2018-02-07T00:36:49.882Z,74.66
2018-02-07T00:39:18.174Z,75.06
2018-02-07T00:41:46.488Z,74.74
2018-02-07T00:44:14.762Z,74.50
2018-02-07T00:46:43.101Z,74.23
2018-02-07T00:49:11.385Z,73.89
2018-02-07T00:51:39.690Z,73.57
2018-02-07T00:54:07.980Z,73.39
2018-02-07T00:56:36.255Z,73.08
2018-02-07T00:59:05.282Z,73.20
2018-02-07T01:01:33.557Z,73.14
2018-02-07T01:04:02.536Z,72.97
2018-02-07T01:06:30.856Z,73.08
2018-02-07T01:08:59.166Z,72.88
2018-02-07T01:11:27.437Z,72.43
2018-02-07T01:13:55.742Z,72.65
2018-02-07T01:16:24.035Z,72.51
2018-02-07T01:18:52.332Z,72.56
2018-02-07T01:21:20.625Z,73.33
2018-02-07T01:23:48.921Z,73.71
2018-02-07T01:26:17.192Z,73.46
2018-02-07T01:28:45.484Z,72.97
2018-02-07T01:31:13.791Z,72.41
2018-02-07T01:33:42.067Z,72.29
2018-02-07T01:36:10.358Z,72.27
2018-02-07T01:38:38.623Z,72.65
2018-02-07T01:41:06.958Z,72.30
2018-02-07T01:43:35.231Z,72.40
2018-02-07T01:46:03.560Z,72.35
2018-02-07T01:48:31.814Z,72.63
2018-02-07T01:51:00.169Z,72.74
2018-02-07T01:53:28.468Z,72.86
2018-02-07T01:55:56.776Z,72.84
2018-02-07T01:58:25.156Z,72.66
2018-02-07T02:00:53.396Z,72.70
2018-02-07T02:03:21.707Z,72.85
2018-02-07T02:05:49.984Z,72.83
2018-02-07T02:08:18.339Z,73.98
2018-02-07T02:10:46.572Z,75.20
2018-02-07T02:13:14.878Z,75.35
2018-02-07T02:15:43.191Z,74.82
2018-02-07T02:18:11.502Z,74.36
2018-02-07T02:20:39.783Z,73.88
2018-02-07T02:23:08.088Z,73.64
2018-02-07T02:25:36.367Z,72.73
2018-02-07T02:28:04.673Z,72.78
2018-02-07T02:30:32.947Z,72.53
2018-02-07T02:33:01.223Z,72.68
2018-02-07T02:35:29.541Z,72.53
2018-02-07T02:37:57.815Z,72.09
2018-02-07T02:40:26.125Z,71.88
2018-02-07T02:42:54.414Z,72.70
2018-02-07T02:45:22.706Z,72.58
2018-02-07T02:47:50.978Z,72.50
2018-02-07T02:50:19.274Z,72.67
2018-02-07T02:52:47.563Z,72.79
2018-02-07T02:55:15.848Z,72.30
2018-02-07T02:57:44.160Z,72.55
2018-02-07T03:00:12.431Z,72.59
2018-02-07T03:02:40.727Z,72.20
2018-02-07T03:05:09.007Z,71.98
2018-02-07T03:07:37.319Z,71.52
2018-02-07T03:10:05.619Z,71.85
2018-02-07T03:12:33.928Z,72.31
2018-02-07T03:15:02.257Z,71.76
2018-02-07T03:17:30.540Z,71.68
2018-02-07T03:19:58.813Z,72.26
2018-02-07T03:22:27.146Z,73.04
2018-02-07T03:24:55.450Z,73.01
2018-02-07T03:27:23.674Z,72.91
2018-02-07T03:29:51.991Z,73.08
2018-02-07T03:32:20.268Z,72.74
2018-02-07T03:34:48.602Z,72.53
2018-02-07T03:37:16.894Z,71.93
2018-02-07T03:39:45.204Z,71.83
2018-02-07T03:42:13.491Z,71.48
2018-02-07T03:44:41.809Z,71.81
2018-02-07T03:47:10.136Z,71.88
2018-02-07T03:49:38.437Z,71.77
2018-02-07T03:52:06.759Z,71.65
2018-02-07T03:54:35.453Z,71.68
2018-02-07T03:57:03.728Z,71.57
2018-02-07T03:59:32.044Z,71.73
2018-02-07T04:02:00.367Z,71.78
2018-02-07T04:04:28.653Z,71.72
2018-02-07T04:06:56.953Z,71.61
2018-02-07T04:09:25.229Z,71.66
2018-02-07T04:11:53.528Z,71.69
2018-02-07T04:14:21.807Z,71.13
2018-02-07T04:16:50.135Z,71.19
2018-02-07T04:19:18.423Z,71.32
2018-02-07T04:21:46.682Z,72.04
2018-02-07T04:24:15.006Z,71.78
2018-02-07T04:26:43.258Z,71.62
2018-02-07T04:29:11.566Z,71.46
2018-02-07T04:31:39.843Z,71.41
2018-02-07T04:34:08.164Z,71.33
2018-02-07T04:36:36.452Z,71.02
2018-02-07T04:39:05.686Z,71.18
2018-02-07T04:41:33.988Z,71.22
2018-02-07T04:44:02.654Z,71.56
2018-02-07T04:46:30.932Z,71.45
2018-02-07T04:48:59.201Z,70.66
2018-02-07T04:51:27.499Z,71.61
2018-02-07T04:53:55.763Z,71.52
2018-02-07T04:56:24.080Z,71.79
2018-02-07T04:58:52.364Z,71.13
2018-02-07T05:01:20.674Z,70.63
2018-02-07T05:03:49.014Z,70.34
2018-02-07T05:06:17.315Z,70.31
2018-02-07T05:08:45.620Z,70.66
2018-02-07T05:11:13.932Z,70.87
2018-02-07T05:13:42.212Z,71.07
2018-02-07T05:16:10.827Z,71.63
2018-02-07T05:18:39.218Z,71.80
2018-02-07T05:21:07.561Z,71.11
2018-02-07T05:23:35.895Z,71.35
2018-02-07T05:26:04.815Z,71.31
2018-02-07T05:28:33.120Z,71.88
2018-02-07T05:31:01.392Z,73.04
2018-02-07T05:33:29.730Z,73.56
2018-02-07T05:35:58.024Z,73.06
2018-02-07T05:38:26.352Z,72.55
2018-02-07T05:40:54.677Z,72.29
2018-02-07T05:43:22.960Z,71.74
2018-02-07T05:45:51.260Z,71.53
2018-02-07T05:48:19.549Z,71.35
2018-02-07T05:50:48.689Z,71.46
2018-02-07T05:53:16.979Z,70.91
2018-02-07T05:55:45.296Z,71.21
2018-02-07T05:58:13.571Z,70.93
2018-02-07T06:00:41.879Z,70.00
2018-02-07T06:03:10.185Z,70.05
2018-02-07T06:05:38.489Z,70.26
2018-02-07T06:08:06.765Z,69.92
2018-02-07T06:10:35.173Z,69.95
2018-02-07T06:13:03.434Z,70.29
2018-02-07T06:15:31.779Z,71.19
2018-02-07T06:18:00.103Z,71.39
2018-02-07T06:20:28.368Z,71.62
2018-02-07T06:22:56.685Z,72.35
2018-02-07T06:25:24.953Z,71.85
2018-02-07T06:27:53.287Z,71.72
2018-02-07T06:30:21.604Z,71.31
2018-02-07T06:32:49.930Z,70.68
2018-02-07T06:35:18.211Z,70.41
2018-02-07T06:37:46.501Z,70.45
2018-02-07T06:40:14.801Z,70.16
2018-02-07T06:42:43.149Z,70.26
2018-02-07T06:45:11.451Z,70.13
2018-02-07T06:47:39.796Z,70.42
2018-02-07T06:50:08.075Z,70.12
2018-02-07T06:52:36.393Z,69.89
2018-02-07T06:55:04.731Z,69.76
2018-02-07T06:57:33.044Z,69.93
2018-02-07T07:00:01.358Z,69.58
2018-02-07T07:02:29.640Z,69.31
2018-02-07T07:04:57.943Z,69.42
2018-02-07T07:07:26.219Z,69.54
2018-02-07T07:09:54.540Z,69.66
2018-02-07T07:12:22.820Z,69.56
2018-02-07T07:14:51.163Z,69.82
2018-02-07T07:17:19.471Z,69.88
2018-02-07T07:19:47.760Z,70.03
2018-02-07T07:22:16.387Z,69.87
2018-02-07T07:24:44.651Z,69.91
2018-02-07T07:27:12.954Z,70.07
2018-02-07T07:29:41.268Z,69.98
2018-02-07T07:32:09.578Z,69.76
2018-02-07T07:34:37.870Z,69.90
2018-02-07T07:37:06.221Z,70.09
2018-02-07T07:39:34.506Z,69.66
2018-02-07T07:42:02.826Z,69.44
2018-02-07T07:44:31.155Z,69.85
2018-02-07T07:46:59.514Z,69.75
2018-02-07T07:49:27.794Z,69.64
2018-02-07T07:51:56.129Z,69.21
2018-02-07T07:54:24.436Z,69.17
2018-02-07T07:56:52.723Z,69.45
2018-02-07T07:59:21.028Z,69.48
2018-02-07T08:01:49.296Z,69.65
2018-02-07T08:04:17.598Z,69.30
2018-02-07T08:06:45.927Z,69.49
2018-02-07T08:09:14.272Z,69.31
2018-02-07T08:11:42.554Z,69.20
2018-02-07T08:14:10.878Z,69.43
2018-02-07T08:16:39.215Z,68.92
2018-02-07T08:19:07.623Z,68.50
2018-02-07T08:21:35.892Z,68.85
2018-02-07T08:24:04.167Z,68.81
2018-02-07T08:26:32.497Z,69.32
2018-02-07T08:29:00.746Z,69.27
2018-02-07T08:31:29.068Z,69.52
2018-02-07T08:33:57.373Z,69.67
2018-02-07T08:36:25.756Z,69.62
2018-02-07T08:38:54.055Z,69.95
2018-02-07T08:41:22.367Z,69.32
2018-02-07T08:43:50.669Z,68.95
2018-02-07T08:46:19.251Z,68.53
2018-02-07T08:48:47.664Z,68.41
2018-02-07T08:51:15.991Z,68.85
2018-02-07T08:53:44.383Z,68.83
2018-02-07T08:56:12.687Z,68.97
2018-02-07T08:58:41.035Z,68.35
2018-02-07T09:01:09.319Z,69.15
2018-02-07T09:03:37.625Z,69.25
2018-02-07T09:06:05.895Z,69.01
2018-02-07T09:08:34.272Z,69.47
2018-02-07T09:11:02.567Z,69.72
2018-02-07T09:13:31.180Z,70.19
2018-02-07T09:15:59.489Z,70.36
2018-02-07T09:18:27.808Z,70.45
2018-02-07T09:20:56.110Z,69.85
2018-02-07T09:23:24.491Z,69.99
2018-02-07T09:25:52.752Z,69.73
2018-02-07T09:28:21.084Z,69.49
2018-02-07T09:30:49.455Z,69.64
2018-02-07T09:33:17.746Z,69.94
2018-02-07T09:35:46.060Z,69.85
2018-02-07T09:38:14.372Z,69.38
2018-02-07T09:40:42.697Z,69.63
2018-02-07T09:43:10.971Z,69.02
2018-02-07T09:45:39.285Z,69.49
2018-02-07T09:48:07.592Z,69.45
2018-02-07T09:50:35.926Z,69.84
2018-02-07T09:53:04.224Z,69.11
2018-02-07T09:55:32.620Z,69.21
2018-02-07T09:58:00.937Z,69.28
2018-02-07T10:00:29.257Z,69.57
2018-02-07T10:02:57.582Z,69.34
2018-02-07T10:05:26.461Z,69.45
2018-02-07T10:07:55.111Z,69.38
2018-02-07T10:10:23.394Z,69.67
2018-02-07T10:12:51.796Z,69.47
2018-02-07T10:15:20.159Z,68.98
2018-02-07T10:17:48.464Z,68.73
2018-02-07T10:20:16.740Z,68.12
2018-02-07T10:22:45.112Z,68.77
2018-02-07T10:25:13.471Z,68.20
2018-02-07T10:27:41.882Z,67.67
2018-02-07T10:30:10.678Z,67.27
2018-02-07T10:32:38.969Z,66.45
2018-02-07T10:35:07.512Z,66.84
2018-02-07T10:37:36.100Z,66.61
2018-02-07T10:40:04.475Z,66.52
2018-02-07T10:42:32.754Z,65.87
2018-02-07T10:45:01.056Z,65.64
2018-02-07T10:47:29.384Z,65.12
2018-02-07T10:49:57.789Z,64.51
2018-02-07T10:52:26.200Z,64.45
2018-02-07T10:54:54.775Z,64.15
2018-02-07T10:57:23.127Z,63.26
2018-02-07T10:59:51.458Z,63.15
2018-02-07T11:02:21.009Z,64.00
2018-02-07T11:04:49.367Z,64.23
2018-02-07T11:07:17.692Z,63.72
2018-02-07T11:09:46.037Z,63.72
2018-02-07T11:12:14.435Z,63.80
2018-02-07T11:14:42.912Z,64.31
2018-02-07T11:17:11.289Z,64.35
2018-02-07T11:19:39.573Z,64.75
2018-02-07T11:22:07.927Z,65.96
2018-02-07T11:24:36.227Z,66.87
2018-02-07T11:27:04.657Z,66.99
2018-02-07T11:29:32.961Z,66.45
2018-02-07T11:32:01.275Z,67.37
2018-02-07T11:34:29.617Z,67.92
2018-02-07T11:36:59.223Z,67.25
2018-02-07T11:39:27.574Z,66.74
2018-02-07T11:41:55.884Z,65.87
2018-02-07T11:44:24.495Z,66.38
2018-02-07T11:46:52.852Z,66.58
2018-02-07T11:49:21.173Z,66.12
2018-02-07T11:51:50.011Z,64.77
2018-02-07T11:54:18.310Z,64.57
2018-02-07T11:56:46.587Z,64.89
2018-02-07T11:59:14.957Z,65.48
2018-02-07T12:01:43.436Z,65.08
2018-02-07T12:04:11.732Z,64.54
2018-02-07T12:06:40.056Z,65.22
2018-02-07T12:09:08.358Z,65.17
2018-02-07T12:11:36.736Z,64.55
2018-02-07T12:14:05.115Z,64.70
2018-02-07T12:16:33.984Z,63.94
2018-02-07T12:19:02.337Z,64.24
2018-02-07T12:21:30.650Z,64.84
2018-02-07T12:23:59.668Z,65.14
2018-02-07T12:26:28.000Z,64.19
2018-02-07T12:28:56.497Z,64.04
2018-02-07T12:31:24.831Z,63.91
2018-02-07T12:33:53.841Z,62.71
2018-02-07T12:36:22.184Z,62.19
2018-02-07T12:38:50.551Z,60.83
2018-02-07T12:41:18.840Z,61.59
2018-02-07T12:43:47.167Z,62.61
2018-02-07T12:46:15.516Z,62.63
2018-02-07T12:48:43.850Z,61.78
2018-02-07T12:51:12.163Z,60.39
2018-02-07T12:53:40.470Z,59.60
2018-02-07T12:56:08.758Z,59.10
2018-02-07T12:58:37.107Z,58.98
2018-02-07T13:01:05.440Z,58.97
2018-02-07T13:03:33.715Z,59.83
2018-02-07T13:06:01.988Z,59.94
2018-02-07T13:08:30.742Z,59.25
2018-02-07T13:10:59.888Z,58.15
2018-02-07T13:13:28.215Z,59.39
2018-02-07T13:15:56.547Z,59.98
2018-02-07T13:18:24.869Z,59.82
2018-02-07T13:20:53.280Z,60.16
2018-02-07T13:23:21.553Z,60.25
2018-02-07T13:25:50.027Z,59.83
2018-02-07T13:28:18.393Z,59.14
2018-02-07T13:30:46.713Z,59.18
2018-02-07T13:33:15.018Z,58.51
2018-02-07T13:35:43.336Z,58.26
2018-02-07T13:38:11.625Z,58.82
2018-02-07T13:40:39.942Z,59.27
2018-02-07T13:43:08.346Z,58.40
2018-02-07T13:45:36.687Z,59.16
2018-02-07T13:48:05.628Z,59.30
2018-02-07T13:50:33.907Z,59.71
2018-02-07T13:53:02.283Z,60.18
2018-02-07T13:55:30.572Z,59.72
2018-02-07T13:57:58.935Z,59.81
2018-02-07T14:00:27.228Z,60.20
2018-02-07T14:02:55.575Z,59.81
2018-02-07T14:05:24.473Z,60.05
2018-02-07T14:07:52.802Z,59.36
2018-02-07T14:10:21.996Z,59.58
2018-02-07T14:12:50.298Z,58.17
2018-02-07T14:15:18.577Z,57.71
2018-02-07T14:17:46.889Z,58.06
2018-02-07T14:20:15.228Z,58.43
2018-02-07T14:22:43.738Z,57.87
2018-02-07T14:25:12.156Z,58.54
2018-02-07T14:27:40.468Z,58.30
2018-02-07T14:30:08.771Z,57.96
2018-02-07T14:32:37.119Z,58.03
2018-02-07T14:35:05.427Z,57.56
2018-02-07T14:37:33.724Z,57.53
2018-02-07T14:40:02.542Z,57.22
2018-02-07T14:42:30.890Z,57.58
2018-02-07T14:44:59.502Z,57.98
2018-02-07T14:47:27.952Z,57.69
2018-02-07T14:49:56.242Z,57.70
2018-02-07T14:52:24.588Z,57.73
2018-02-07T14:54:52.890Z,57.95
2018-02-07T14:57:21.213Z,58.32
2018-02-07T14:59:49.515Z,58.59
2018-02-07T15:02:17.880Z,58.97
2018-02-07T15:04:46.205Z,58.79
2018-02-07T15:07:14.521Z,58.20
2018-02-07T15:09:42.833Z,57.96
2018-02-07T15:12:11.266Z,58.57
2018-02-07T15:14:39.612Z,58.64
2018-02-07T15:17:08.191Z,58.89
2018-02-07T15:19:36.518Z,59.28
2018-02-07T15:22:05.842Z,59.25
2018-02-07T15:24:34.941Z,58.77
2018-02-07T15:27:03.264Z,58.92
2018-02-07T15:29:31.565Z,59.35
2018-02-07T15:31:59.866Z,59.18
2018-02-07T15:34:28.484Z,59.22
2018-02-07T15:36:56.795Z,59.11
2018-02-07T15:39:25.135Z,59.33
2018-02-07T15:41:53.424Z,58.92
2018-02-07T15:44:21.769Z,58.05
2018-02-07T15:46:50.080Z,58.08
2018-02-07T15:49:18.476Z,58.23
2018-02-07T15:51:46.724Z,59.01
2018-02-07T15:54:15.112Z,59.07
2018-02-07T15:56:43.374Z,58.47
2018-02-07T15:59:12.325Z,58.17
2018-02-07T16:01:41.107Z,58.33
2018-02-07T16:04:09.431Z,57.70
2018-02-07T16:06:37.824Z,58.19
2018-02-07T16:09:06.123Z,58.77
2018-02-07T16:11:34.460Z,58.64
2018-02-07T16:14:02.742Z,58.66
2018-02-07T16:16:31.035Z,58.30
2018-02-07T16:18:59.342Z,58.03
2018-02-07T16:21:27.652Z,57.84
2018-02-07T16:23:55.987Z,58.05
2018-02-07T16:26:24.323Z,57.84
2018-02-07T16:28:52.622Z,58.56
2018-02-07T16:31:20.883Z,58.72
2018-02-07T16:33:49.185Z,58.19
2018-02-07T16:36:17.456Z,57.94
2018-02-07T16:38:46.532Z,58.08
2018-02-07T16:41:14.814Z,58.12
2018-02-07T16:43:43.130Z,58.48
2018-02-07T16:46:11.420Z,58.45
2018-02-07T16:48:39.826Z,58.29
2018-02-07T16:51:08.109Z,58.86
2018-02-07T16:53:36.438Z,59.50
2018-02-07T16:56:05.292Z,59.72
2018-02-07T16:58:33.626Z,59.09
2018-02-07T17:01:01.927Z,60.04
2018-02-07T17:03:30.202Z,60.04
2018-02-07T17:05:58.528Z,60.66
2018-02-07T17:08:26.823Z,60.69
2018-02-07T17:10:55.579Z,60.25
2018-02-07T17:13:23.877Z,60.63
2018-02-07T17:15:52.192Z,61.23
2018-02-07T17:18:20.478Z,61.38
2018-02-07T17:20:48.892Z,61.78
2018-02-07T17:23:17.208Z,61.85
2018-02-07T17:25:45.527Z,61.52
2018-02-07T17:28:14.068Z,61.38
2018-02-07T17:30:42.424Z,62.31
2018-02-07T17:33:11.587Z,63.14
2018-02-07T17:35:40.161Z,63.75
2018-02-07T17:38:08.523Z,64.21
2018-02-07T17:40:36.802Z,64.49
2018-02-07T17:43:05.141Z,64.72
2018-02-07T17:45:33.383Z,65.55
2018-02-07T17:48:01.688Z,66.14
2018-02-07T17:50:29.976Z,66.92
2018-02-07T17:52:58.287Z,67.38
2018-02-07T17:55:26.604Z,67.33
2018-02-07T17:57:55.581Z,67.28
2018-02-07T18:00:23.901Z,67.56
2018-02-07T18:02:52.206Z,68.10
2018-02-07T18:05:21.477Z,68.01
2018-02-07T18:07:49.846Z,68.39
2018-02-07T18:10:18.139Z,68.54
2018-02-07T18:12:46.424Z,68.95
2018-02-07T18:15:14.720Z,69.39
2018-02-07T18:17:42.996Z,69.03
2018-02-07T18:20:11.331Z,68.48
2018-02-07T18:22:39.602Z,68.39
2018-02-07T18:25:07.917Z,68.30
2018-02-07T18:27:36.190Z,68.75
2018-02-07T18:30:04.512Z,68.73
2018-02-07T18:32:32.788Z,67.90
2018-02-07T18:35:01.112Z,68.10
2018-02-07T18:37:29.412Z,68.76
2018-02-07T18:39:57.761Z,68.84
2018-02-07T18:42:26.086Z,67.70
2018-02-07T18:44:54.377Z,66.29
2018-02-07T18:47:22.690Z,65.70
2018-02-07T18:49:50.968Z,65.64
2018-02-07T18:52:19.285Z,66.85
2018-02-07T18:54:47.547Z,68.08
2018-02-07T18:57:15.855Z,68.47
2018-02-07T18:59:44.148Z,68.45
2018-02-07T19:02:12.459Z,68.48
2018-02-07T19:04:40.756Z,68.61
2018-02-07T19:07:09.072Z,69.28
2018-02-07T19:09:37.372Z,69.40
2018-02-07T19:12:05.775Z,69.86
2018-02-07T19:14:34.083Z,70.19
2018-02-07T19:17:02.419Z,70.15
2018-02-07T19:19:30.753Z,70.58
2018-02-07T19:21:58.967Z,70.56
2018-02-07T19:24:27.297Z,70.44
2018-02-07T19:26:55.598Z,70.59
2018-02-07T19:29:26.152Z,70.98
2018-02-07T19:31:54.414Z,71.05
2018-02-07T19:34:22.853Z,71.21
2018-02-07T19:36:51.139Z,71.44
2018-02-07T19:39:19.473Z,71.32
2018-02-07T19:41:48.884Z,70.82
2018-02-07T19:44:17.203Z,71.28
2018-02-07T19:46:45.482Z,70.96
2018-02-07T19:49:13.797Z,70.90
2018-02-07T19:51:42.084Z,70.05
2018-02-07T19:54:10.473Z,70.04
2018-02-07T19:56:38.776Z,70.41
2018-02-07T19:59:07.117Z,70.82
2018-02-07T20:01:35.435Z,71.36
2018-02-07T20:04:03.752Z,71.50
2018-02-07T20:06:32.113Z,71.61
2018-02-07T20:09:00.412Z,71.83
2018-02-07T20:11:28.724Z,71.80
2018-02-07T20:13:57.023Z,72.09
2018-02-07T20:16:25.388Z,71.34
2018-02-07T20:18:53.660Z,71.53
2018-02-07T20:21:21.968Z,71.84
2018-02-07T20:23:50.241Z,71.84
2018-02-07T20:26:18.731Z,71.92
2018-02-07T20:28:47.182Z,71.71
2018-02-07T20:31:15.454Z,72.18
2018-02-07T20:33:43.801Z,72.51
2018-02-07T20:36:12.100Z,72.08
2018-02-07T20:38:40.397Z,71.87
2018-02-07T20:41:08.948Z,72.18
2018-02-07T20:43:37.236Z,72.10
2018-02-07T20:46:05.809Z,71.76
2018-02-07T20:48:34.124Z,71.45
2018-02-07T20:51:02.406Z,70.80
2018-02-07T20:53:30.742Z,70.38
2018-02-07T20:55:59.016Z,69.63
2018-02-07T20:58:27.373Z,69.32
2018-02-07T21:00:55.661Z,69.69
2018-02-07T21:03:23.979Z,70.35
2018-02-07T21:05:52.231Z,70.26
2018-02-07T21:08:20.692Z,70.70
2018-02-07T21:10:48.972Z,70.16
2018-02-07T21:13:17.260Z,69.64
2018-02-07T21:15:45.560Z,69.76
2018-02-07T21:18:13.839Z,69.36
2018-02-07T21:20:42.177Z,70.17
2018-02-07T21:23:10.464Z,70.63
2018-02-07T21:25:38.803Z,71.44
2018-02-07T21:28:07.123Z,71.82
2018-02-07T21:30:35.456Z,72.36
2018-02-07T21:33:04.894Z,72.11
2018-02-07T21:35:34.003Z,72.44
2018-02-07T21:40:29.657Z,70.11
2018-02-07T21:42:58.032Z,70.35
2018-02-07T21:45:26.291Z,71.02
2018-02-07T21:47:55.400Z,70.99
2018-02-07T21:50:23.668Z,71.17
2018-02-07T21:52:52.195Z,70.25
2018-02-07T21:55:20.504Z,70.51
2018-02-07T21:57:48.790Z,71.46
2018-02-07T22:00:17.090Z,72.09
2018-02-07T22:02:45.368Z,72.45
2018-02-07T22:05:13.710Z,72.58
2018-02-07T22:07:42.065Z,72.52
2018-02-07T22:10:10.402Z,72.23
2018-02-07T22:12:38.712Z,71.70
2018-02-07T22:15:07.020Z,71.94
2018-02-07T22:17:36.299Z,71.91
2018-02-07T22:20:04.616Z,71.55
2018-02-07T22:22:32.894Z,70.91
2018-02-07T22:25:01.200Z,69.70
2018-02-07T22:27:30.013Z,69.05
2018-02-07T22:29:58.332Z,69.63
2018-02-07T22:32:26.598Z,69.66
2018-02-07T22:34:54.912Z,69.22
2018-02-07T22:37:23.251Z,69.57
2018-02-07T22:39:51.551Z,69.42
2018-02-07T22:42:19.903Z,68.32
2018-02-07T22:44:48.193Z,70.27
2018-02-07T22:47:17.286Z,71.32
2018-02-07T22:49:45.641Z,70.45
2018-02-07T22:52:13.956Z,69.74
2018-02-07T22:54:42.228Z,70.49
2018-02-07T22:57:10.559Z,71.17
2018-02-07T22:59:38.913Z,70.97
2018-02-07T23:02:07.220Z,71.35
2018-02-07T23:04:35.520Z,71.81
2018-02-07T23:07:03.836Z,71.60
2018-02-07T23:09:32.191Z,71.63
2018-02-07T23:12:00.501Z,71.83
2018-02-07T23:14:28.794Z,72.13
2018-02-07T23:16:57.075Z,72.21
2018-02-07T23:19:25.383Z,70.17
2018-02-07T23:21:53.894Z,70.90
2018-02-07T23:24:22.205Z,71.55
2018-02-07T23:26:50.479Z,71.72
2018-02-07T23:29:18.824Z,72.18
2018-02-07T23:31:47.089Z,72.35
2018-02-07T23:34:15.410Z,72.48
2018-02-07T23:36:43.818Z,72.38
2018-02-07T23:39:12.092Z,72.69
2018-02-07T23:41:40.377Z,71.56
2018-02-07T23:44:08.682Z,71.79
2018-02-07T23:46:36.962Z,71.48
2018-02-07T23:49:05.228Z,70.53
2018-02-07T23:51:33.543Z,70.03
2018-02-07T23:54:01.853Z,70.61
2018-02-07T23:56:30.135Z,71.24
2018-02-07T23:58:58.414Z,71.96
